createdAt,value
2022-08-17T00:11:22.501Z,24.36
2022-08-17T00:41:25.699Z,25.37
2022-08-17T01:11:29.582Z,26.40
2022-08-17T01:41:32.610Z,25.12
2022-08-17T02:11:35.820Z,23.58
2022-08-17T02:41:39.379Z,24.68
2022-08-17T03:11:42.638Z,25.26
2022-08-17T03:41:45.672Z,24.34
2022-08-17T04:11:49.201Z,23.35
2022-08-17T04:41:51.884Z,25.59
2022-08-17T05:11:56.272Z,25.63
2022-08-17T05:41:59.192Z,25.02
2022-08-17T06:12:03.513Z,27.99
2022-08-17T06:42:06.454Z,25.69
2022-08-17T07:12:10.375Z,28.97
2022-08-17T07:42:13.460Z,26.87
2022-08-17T08:12:16.792Z,29.18
2022-08-17T08:42:20.332Z,30.82
2022-08-17T09:12:24.477Z,30.17
2022-08-17T09:42:27.600Z,31.20
2022-08-17T10:12:30.565Z,32.07
2022-08-17T10:42:33.941Z,33.13
2022-08-17T11:12:36.960Z,33.79
2022-08-17T11:42:39.943Z,34.03
2022-08-17T12:12:43.196Z,34.10
2022-08-17T12:42:46.275Z,34.53
2022-08-17T13:12:49.745Z,34.82
2022-08-17T13:42:53.969Z,34.85
2022-08-17T14:12:58.132Z,34.55
2022-08-17T14:43:02.711Z,34.30
2022-08-17T15:13:05.574Z,33.71
2022-08-17T15:43:08.703Z,32.75
2022-08-17T16:13:17.495Z,32.54
2022-08-17T16:43:21.227Z,31.39
2022-08-17T17:13:25.547Z,30.04
2022-08-17T17:43:38.891Z,29.07
2022-08-17T18:13:42.949Z,27.90
2022-08-17T18:43:53.511Z,26.57
2022-08-17T19:13:57.377Z,25.57
2022-08-17T19:44:00.816Z,24.64
2022-08-17T20:14:04.234Z,24.08
2022-08-17T20:44:07.772Z,23.42
2022-08-17T21:14:10.602Z,24.34
2022-08-17T21:44:14.644Z,22.92
2022-08-17T22:14:17.642Z,23.81
2022-08-17T22:44:20.740Z,23.65
2022-08-17T23:14:24.255Z,25.77
2022-08-17T23:44:27.291Z,27.11
